Friend, Oregon
Current Conditions -  °F | °C
As of 5:53 AM on Monday 20 Oct 2014 (Local Time) from KDLS Reporting Station
Broken Clouds Broken Clouds  
Wind Chill: 54°   Ceiling: 9000
Heat Index: 54°   Visibility: 10mi
Dew Point: 50°   Wind: 5mph
Humidity: 86%   Direction: 60°ENE
Pressure: 29.73"   Gusts: NA
Location:  45.3856°N, 121.15°W
Report Text: KDLS 201253Z AUTO 06004KT 10SM BKN090 12/10 A2973 RMK AO2 SLP066 T01220100
Loading
Personal Weather Stations






























Interactive Weather Map
Tropical Storm Tracking
New forecast layout! Learn more

10-Day Weather Forecast

Advertisements
Track Severe Weather on mobile